sensor_id;sensor_type;location;lat;lon;timestamp;temperature;humidity
33699;DHT22;20032;52.436;13.312;2023-06-24T00:00:03;17.90;99.90
33699;DHT22;20032;52.436;13.312;2023-06-24T00:02:32;17.90;99.90
33699;DHT22;20032;52.436;13.312;2023-06-24T00:05:01;17.90;99.90
33699;DHT22;20032;52.436;13.312;2023-06-24T00:07:27;17.90;99.90
33699;DHT22;20032;52.436;13.312;2023-06-24T00:09:53;17.90;99.90
33699;DHT22;20032;52.436;13.312;2023-06-24T00:12:19;17.80;99.90
33699;DHT22;20032;52.436;13.312;2023-06-24T00:14:46;17.80;99.90
33699;DHT22;20032;52.436;13.312;2023-06-24T00:17:11;17.80;99.90
33699;DHT22;20032;52.436;13.312;2023-06-24T00:19:37;17.80;99.90
33699;DHT22;20032;52.436;13.312;2023-06-24T00:22:03;17.80;99.90
33699;DHT22;20032;52.436;13.312;2023-06-24T00:24:29;17.80;99.90
33699;DHT22;20032;52.436;13.312;2023-06-24T00:26:55;17.80;99.90
33699;DHT22;20032;52.436;13.312;2023-06-24T00:29:21;17.70;99.90
33699;DHT22;20032;52.436;13.312;2023-06-24T00:31:47;17.70;99.90
33699;DHT22;20032;52.436;13.312;2023-06-24T00:34:12;17.70;99.90
33699;DHT22;20032;52.436;13.312;2023-06-24T00:36:38;17.70;99.90
33699;DHT22;20032;52.436;13.312;2023-06-24T00:39:04;17.60;99.90
33699;DHT22;20032;52.436;13.312;2023-06-24T00:41:30;17.60;99.90
33699;DHT22;20032;52.436;13.312;2023-06-24T00:43:57;17.70;99.90
33699;DHT22;20032;52.436;13.312;2023-06-24T00:46:24;17.60;99.90
33699;DHT22;20032;52.436;13.312;2023-06-24T00:48:55;17.60;99.90
33699;DHT22;20032;52.436;13.312;2023-06-24T00:51:21;17.60;99.90
33699;DHT22;20032;52.436;13.312;2023-06-24T00:53:52;17.60;99.90
33699;DHT22;20032;52.436;13.312;2023-06-24T00:56:19;17.50;99.90
33699;DHT22;20032;52.436;13.312;2023-06-24T00:58:47;17.60;99.90
33699;DHT22;20032;52.436;13.312;2023-06-24T01:01:14;17.50;99.90
33699;DHT22;20032;52.436;13.312;2023-06-24T01:03:40;17.50;99.90
33699;DHT22;20032;52.436;13.312;2023-06-24T01:06:05;17.40;99.90
33699;DHT22;20032;52.436;13.312;2023-06-24T01:08:31;17.40;99.90
33699;DHT22;20032;52.436;13.312;2023-06-24T01:10:57;17.40;99.90
33699;DHT22;20032;52.436;13.312;2023-06-24T01:13:22;17.30;99.90
33699;DHT22;20032;52.436;13.312;2023-06-24T01:15:49;17.40;99.90
33699;DHT22;20032;52.436;13.312;2023-06-24T01:18:39;17.40;99.90
33699;DHT22;20032;52.436;13.312;2023-06-24T01:21:29;17.40;99.90
33699;DHT22;20032;52.436;13.312;2023-06-24T01:24:31;17.40;99.90
33699;DHT22;20032;52.436;13.312;2023-06-24T01:27:11;17.30;99.90
33699;DHT22;20032;52.436;13.312;2023-06-24T01:30:21;17.30;99.90
33699;DHT22;20032;52.436;13.312;2023-06-24T01:32:38;17.30;99.90
33699;DHT22;20032;52.436;13.312;2023-06-24T01:35:18;17.30;99.90
33699;DHT22;20032;52.436;13.312;2023-06-24T01:37:49;17.20;99.90
33699;DHT22;20032;52.436;13.312;2023-06-24T01:40:27;17.20;99.90
33699;DHT22;20032;52.436;13.312;2023-06-24T01:42:54;17.20;99.90
33699;DHT22;20032;52.436;13.312;2023-06-24T01:45:25;17.10;99.90
33699;DHT22;20032;52.436;13.312;2023-06-24T01:47:59;17.10;99.90
33699;DHT22;20032;52.436;13.312;2023-06-24T01:50:26;17.10;99.90
33699;DHT22;20032;52.436;13.312;2023-06-24T01:52:55;17.10;99.90
33699;DHT22;20032;52.436;13.312;2023-06-24T01:55:21;17.10;99.90
33699;DHT22;20032;52.436;13.312;2023-06-24T01:57:50;17.00;99.90
33699;DHT22;20032;52.436;13.312;2023-06-24T02:00:17;17.00;99.90
33699;DHT22;20032;52.436;13.312;2023-06-24T02:02:43;17.00;99.90
33699;DHT22;20032;52.436;13.312;2023-06-24T02:05:10;16.90;99.90
33699;DHT22;20032;52.436;13.312;2023-06-24T02:07:38;16.80;99.90
33699;DHT22;20032;52.436;13.312;2023-06-24T02:10:05;16.90;99.90
33699;DHT22;20032;52.436;13.312;2023-06-24T02:12:31;16.80;99.90
33699;DHT22;20032;52.436;13.312;2023-06-24T02:14:58;16.80;99.90
33699;DHT22;20032;52.436;13.312;2023-06-24T02:17:25;16.70;99.90
33699;DHT22;20032;52.436;13.312;2023-06-24T02:19:52;16.60;99.90
33699;DHT22;20032;52.436;13.312;2023-06-24T02:22:19;16.60;99.90
33699;DHT22;20032;52.436;13.312;2023-06-24T02:24:46;16.50;99.90
33699;DHT22;20032;52.436;13.312;2023-06-24T02:27:13;16.50;99.90
33699;DHT22;20032;52.436;13.312;2023-06-24T02:29:39;16.50;99.90
33699;DHT22;20032;52.436;13.312;2023-06-24T02:32:06;16.40;99.90
33699;DHT22;20032;52.436;13.312;2023-06-24T02:34:33;16.40;99.90
33699;DHT22;20032;52.436;13.312;2023-06-24T02:36:58;16.40;99.90
33699;DHT22;20032;52.436;13.312;2023-06-24T02:39:24;16.40;99.90
33699;DHT22;20032;52.436;13.312;2023-06-24T02:41:49;16.30;99.90
33699;DHT22;20032;52.436;13.312;2023-06-24T02:44:16;16.30;99.90
33699;DHT22;20032;52.436;13.312;2023-06-24T02:46:43;16.30;99.90
33699;DHT22;20032;52.436;13.312;2023-06-24T02:49:10;16.20;99.90
33699;DHT22;20032;52.436;13.312;2023-06-24T02:51:38;16.20;99.90
33699;DHT22;20032;52.436;13.312;2023-06-24T02:54:04;16.10;99.90
33699;DHT22;20032;52.436;13.312;2023-06-24T02:56:30;16.10;99.90
33699;DHT22;20032;52.436;13.312;2023-06-24T02:58:56;16.10;99.90
33699;DHT22;20032;52.436;13.312;2023-06-24T03:01:21;16.00;99.90
33699;DHT22;20032;52.436;13.312;2023-06-24T03:03:53;16.00;99.90
33699;DHT22;20032;52.436;13.312;2023-06-24T03:06:20;16.00;99.90
33699;DHT22;20032;52.436;13.312;2023-06-24T03:08:46;15.90;99.90
33699;DHT22;20032;52.436;13.312;2023-06-24T03:11:13;15.80;99.90
33699;DHT22;20032;52.436;13.312;2023-06-24T03:13:39;15.80;99.90
33699;DHT22;20032;52.436;13.312;2023-06-24T03:16:05;15.90;99.90
33699;DHT22;20032;52.436;13.312;2023-06-24T03:18:31;15.80;99.90
33699;DHT22;20032;52.436;13.312;2023-06-24T03:20:57;15.90;99.90
33699;DHT22;20032;52.436;13.312;2023-06-24T03:23:22;15.80;99.90
33699;DHT22;20032;52.436;13.312;2023-06-24T03:25:48;15.80;99.90
33699;DHT22;20032;52.436;13.312;2023-06-24T03:28:13;15.80;99.90
33699;DHT22;20032;52.436;13.312;2023-06-24T03:30:40;15.80;99.90
33699;DHT22;20032;52.436;13.312;2023-06-24T03:33:05;15.80;99.90
33699;DHT22;20032;52.436;13.312;2023-06-24T03:35:31;15.60;99.90
33699;DHT22;20032;52.436;13.312;2023-06-24T03:37:58;15.70;99.90
33699;DHT22;20032;52.436;13.312;2023-06-24T03:40:23;15.70;99.90
33699;DHT22;20032;52.436;13.312;2023-06-24T03:42:49;15.70;99.90
33699;DHT22;20032;52.436;13.312;2023-06-24T03:45:14;15.70;99.90
33699;DHT22;20032;52.436;13.312;2023-06-24T03:47:40;15.70;99.90
33699;DHT22;20032;52.436;13.312;2023-06-24T03:50:06;15.70;99.90
33699;DHT22;20032;52.436;13.312;2023-06-24T03:52:31;15.70;99.90
33699;DHT22;20032;52.436;13.312;2023-06-24T03:54:57;15.70;99.90
33699;DHT22;20032;52.436;13.312;2023-06-24T03:57:22;15.70;99.90
33699;DHT22;20032;52.436;13.312;2023-06-24T03:59:48;15.70;99.90
33699;DHT22;20032;52.436;13.312;2023-06-24T04:02:13;15.70;99.90
33699;DHT22;20032;52.436;13.312;2023-06-24T04:04:39;15.70;99.90
33699;DHT22;20032;52.436;13.312;2023-06-24T04:07:05;15.70;99.90
33699;DHT22;20032;52.436;13.312;2023-06-24T04:09:33;15.80;99.90
33699;DHT22;20032;52.436;13.312;2023-06-24T04:11:59;15.90;99.90
33699;DHT22;20032;52.436;13.312;2023-06-24T04:14:25;15.80;99.90
33699;DHT22;20032;52.436;13.312;2023-06-24T04:16:50;15.80;99.90
33699;DHT22;20032;52.436;13.312;2023-06-24T04:19:15;15.80;99.90
33699;DHT22;20032;52.436;13.312;2023-06-24T04:21:42;15.80;99.90
33699;DHT22;20032;52.436;13.312;2023-06-24T04:24:08;15.80;99.90
33699;DHT22;20032;52.436;13.312;2023-06-24T04:26:33;15.70;99.90
33699;DHT22;20032;52.436;13.312;2023-06-24T04:28:59;15.70;99.90
33699;DHT22;20032;52.436;13.312;2023-06-24T04:31:27;15.60;99.90
33699;DHT22;20032;52.436;13.312;2023-06-24T04:33:53;15.70;99.90
33699;DHT22;20032;52.436;13.312;2023-06-24T04:36:18;15.80;99.90
33699;DHT22;20032;52.436;13.312;2023-06-24T04:38:44;15.90;99.90
33699;DHT22;20032;52.436;13.312;2023-06-24T04:41:09;15.90;99.90
33699;DHT22;20032;52.436;13.312;2023-06-24T04:43:36;15.90;99.90
33699;DHT22;20032;52.436;13.312;2023-06-24T04:46:02;15.90;99.90
33699;DHT22;20032;52.436;13.312;2023-06-24T04:48:27;15.90;99.90
33699;DHT22;20032;52.436;13.312;2023-06-24T04:50:53;15.90;99.90
33699;DHT22;20032;52.436;13.312;2023-06-24T04:53:20;16.00;99.90
33699;DHT22;20032;52.436;13.312;2023-06-24T04:55:46;16.00;99.90
33699;DHT22;20032;52.436;13.312;2023-06-24T04:58:11;16.00;99.90
33699;DHT22;20032;52.436;13.312;2023-06-24T05:00:37;16.00;99.90
33699;DHT22;20032;52.436;13.312;2023-06-24T05:03:02;16.10;99.90
33699;DHT22;20032;52.436;13.312;2023-06-24T05:05:28;16.00;99.90
33699;DHT22;20032;52.436;13.312;2023-06-24T05:07:53;15.90;99.90
33699;DHT22;20032;52.436;13.312;2023-06-24T05:10:19;16.00;99.90
33699;DHT22;20032;52.436;13.312;2023-06-24T05:12:44;16.00;99.90
33699;DHT22;20032;52.436;13.312;2023-06-24T05:15:10;16.00;99.90
33699;DHT22;20032;52.436;13.312;2023-06-24T05:17:36;16.00;99.90
33699;DHT22;20032;52.436;13.312;2023-06-24T05:20:02;16.10;99.90
33699;DHT22;20032;52.436;13.312;2023-06-24T05:22:28;16.10;99.90
33699;DHT22;20032;52.436;13.312;2023-06-24T05:24:54;16.10;99.90
33699;DHT22;20032;52.436;13.312;2023-06-24T05:27:20;16.10;99.90
33699;DHT22;20032;52.436;13.312;2023-06-24T05:29:46;16.20;99.90
33699;DHT22;20032;52.436;13.312;2023-06-24T05:32:11;16.20;99.90
33699;DHT22;20032;52.436;13.312;2023-06-24T05:34:37;16.30;99.90
33699;DHT22;20032;52.436;13.312;2023-06-24T05:37:02;16.30;99.90
33699;DHT22;20032;52.436;13.312;2023-06-24T05:39:28;16.30;99.90
33699;DHT22;20032;52.436;13.312;2023-06-24T05:41:53;16.30;99.90
33699;DHT22;20032;52.436;13.312;2023-06-24T05:44:20;16.40;99.90
33699;DHT22;20032;52.436;13.312;2023-06-24T05:46:45;16.40;99.90
33699;DHT22;20032;52.436;13.312;2023-06-24T05:49:11;16.50;99.90
33699;DHT22;20032;52.436;13.312;2023-06-24T05:51:37;16.50;99.90
33699;DHT22;20032;52.436;13.312;2023-06-24T05:54:03;16.60;99.90
33699;DHT22;20032;52.436;13.312;2023-06-24T05:56:29;16.60;99.90
33699;DHT22;20032;52.436;13.312;2023-06-24T05:58:55;16.60;99.90
33699;DHT22;20032;52.436;13.312;2023-06-24T06:01:21;16.60;99.90
33699;DHT22;20032;52.436;13.312;2023-06-24T06:03:47;16.60;99.90
33699;DHT22;20032;52.436;13.312;2023-06-24T06:06:13;16.60;99.90
33699;DHT22;20032;52.436;13.312;2023-06-24T06:08:40;16.60;99.90
33699;DHT22;20032;52.436;13.312;2023-06-24T06:11:06;16.70;99.90
33699;DHT22;20032;52.436;13.312;2023-06-24T06:13:31;16.70;99.90
33699;DHT22;20032;52.436;13.312;2023-06-24T06:15:57;16.80;99.90
33699;DHT22;20032;52.436;13.312;2023-06-24T06:18:24;16.80;99.90
33699;DHT22;20032;52.436;13.312;2023-06-24T06:20:49;16.80;99.90
33699;DHT22;20032;52.436;13.312;2023-06-24T06:23:16;16.90;99.90
33699;DHT22;20032;52.436;13.312;2023-06-24T06:25:42;16.90;99.90
33699;DHT22;20032;52.436;13.312;2023-06-24T06:28:08;17.00;99.90
33699;DHT22;20032;52.436;13.312;2023-06-24T06:30:34;17.10;99.90
33699;DHT22;20032;52.436;13.312;2023-06-24T06:33:00;17.20;99.90
33699;DHT22;20032;52.436;13.312;2023-06-24T06:35:25;17.30;99.90
33699;DHT22;20032;52.436;13.312;2023-06-24T06:37:51;17.40;99.90
33699;DHT22;20032;52.436;13.312;2023-06-24T06:40:20;17.50;99.90
33699;DHT22;20032;52.436;13.312;2023-06-24T06:42:45;17.50;99.90
33699;DHT22;20032;52.436;13.312;2023-06-24T06:45:11;17.60;99.90
33699;DHT22;20032;52.436;13.312;2023-06-24T06:47:36;17.70;99.90
33699;DHT22;20032;52.436;13.312;2023-06-24T06:50:02;17.70;99.90
33699;DHT22;20032;52.436;13.312;2023-06-24T06:52:28;17.70;99.90
33699;DHT22;20032;52.436;13.312;2023-06-24T06:54:54;17.70;99.90
33699;DHT22;20032;52.436;13.312;2023-06-24T06:57:20;17.80;99.90
33699;DHT22;20032;52.436;13.312;2023-06-24T06:59:45;17.90;99.90
33699;DHT22;20032;52.436;13.312;2023-06-24T07:02:11;17.90;99.90
33699;DHT22;20032;52.436;13.312;2023-06-24T07:04:36;18.00;99.90
33699;DHT22;20032;52.436;13.312;2023-06-24T07:07:02;18.10;99.90
33699;DHT22;20032;52.436;13.312;2023-06-24T07:09:27;18.20;99.90
33699;DHT22;20032;52.436;13.312;2023-06-24T07:11:53;18.20;99.90
33699;DHT22;20032;52.436;13.312;2023-06-24T07:14:19;18.20;99.90
33699;DHT22;20032;52.436;13.312;2023-06-24T07:16:44;18.30;99.90
33699;DHT22;20032;52.436;13.312;2023-06-24T07:19:09;18.30;99.90
33699;DHT22;20032;52.436;13.312;2023-06-24T07:21:35;18.40;99.90
33699;DHT22;20032;52.436;13.312;2023-06-24T07:24:01;18.40;99.90
33699;DHT22;20032;52.436;13.312;2023-06-24T07:26:27;18.40;99.90
33699;DHT22;20032;52.436;13.312;2023-06-24T07:28:56;18.60;99.90
33699;DHT22;20032;52.436;13.312;2023-06-24T07:31:22;18.80;99.90
33699;DHT22;20032;52.436;13.312;2023-06-24T07:33:48;18.90;99.90
33699;DHT22;20032;52.436;13.312;2023-06-24T07:36:14;18.80;99.90
33699;DHT22;20032;52.436;13.312;2023-06-24T07:38:40;18.80;99.90
33699;DHT22;20032;52.436;13.312;2023-06-24T07:41:05;18.90;99.90
33699;DHT22;20032;52.436;13.312;2023-06-24T07:43:31;19.00;99.90
33699;DHT22;20032;52.436;13.312;2023-06-24T07:45:56;19.20;99.90
33699;DHT22;20032;52.436;13.312;2023-06-24T07:48:22;19.30;99.90
33699;DHT22;20032;52.436;13.312;2023-06-24T07:50:47;19.50;99.90
33699;DHT22;20032;52.436;13.312;2023-06-24T07:53:13;19.60;99.90
33699;DHT22;20032;52.436;13.312;2023-06-24T07:55:38;19.50;99.90
33699;DHT22;20032;52.436;13.312;2023-06-24T07:58:04;19.60;99.90
33699;DHT22;20032;52.436;13.312;2023-06-24T08:00:30;19.80;99.90
33699;DHT22;20032;52.436;13.312;2023-06-24T08:02:57;19.80;99.90
33699;DHT22;20032;52.436;13.312;2023-06-24T08:05:23;19.80;99.90
33699;DHT22;20032;52.436;13.312;2023-06-24T08:07:50;19.90;99.90
33699;DHT22;20032;52.436;13.312;2023-06-24T08:10:16;19.90;99.90
33699;DHT22;20032;52.436;13.312;2023-06-24T08:12:43;19.90;99.90
33699;DHT22;20032;52.436;13.312;2023-06-24T08:15:09;20.20;99.90
33699;DHT22;20032;52.436;13.312;2023-06-24T08:17:34;20.50;99.90
33699;DHT22;20032;52.436;13.312;2023-06-24T08:20:02;20.40;99.90
33699;DHT22;20032;52.436;13.312;2023-06-24T08:22:28;20.20;99.90
33699;DHT22;20032;52.436;13.312;2023-06-24T08:24:53;20.10;99.90
33699;DHT22;20032;52.436;13.312;2023-06-24T08:27:19;20.10;99.90
33699;DHT22;20032;52.436;13.312;2023-06-24T08:29:45;20.30;99.90
33699;DHT22;20032;52.436;13.312;2023-06-24T08:32:10;20.30;99.90
33699;DHT22;20032;52.436;13.312;2023-06-24T08:34:35;20.20;99.90
33699;DHT22;20032;52.436;13.312;2023-06-24T08:37:01;20.20;99.90
33699;DHT22;20032;52.436;13.312;2023-06-24T08:39:26;20.30;99.90
33699;DHT22;20032;52.436;13.312;2023-06-24T08:41:52;20.50;99.90
33699;DHT22;20032;52.436;13.312;2023-06-24T08:44:19;20.40;99.90
33699;DHT22;20032;52.436;13.312;2023-06-24T08:46:45;20.10;99.90
33699;DHT22;20032;52.436;13.312;2023-06-24T08:49:28;20.10;99.90
33699;DHT22;20032;52.436;13.312;2023-06-24T08:52:02;20.40;99.90
33699;DHT22;20032;52.436;13.312;2023-06-24T08:54:28;20.50;99.90
33699;DHT22;20032;52.436;13.312;2023-06-24T08:56:55;20.60;99.90
33699;DHT22;20032;52.436;13.312;2023-06-24T08:59:21;20.60;99.90
33699;DHT22;20032;52.436;13.312;2023-06-24T09:01:47;20.90;99.90
33699;DHT22;20032;52.436;13.312;2023-06-24T09:04:12;20.80;99.90
33699;DHT22;20032;52.436;13.312;2023-06-24T09:06:38;20.70;99.90
33699;DHT22;20032;52.436;13.312;2023-06-24T09:09:04;20.90;99.90
33699;DHT22;20032;52.436;13.312;2023-06-24T09:11:30;21.10;99.90
33699;DHT22;20032;52.436;13.312;2023-06-24T09:13:58;21.00;99.90
33699;DHT22;20032;52.436;13.312;2023-06-24T09:16:24;20.80;99.90
33699;DHT22;20032;52.436;13.312;2023-06-24T09:18:51;20.60;99.90
33699;DHT22;20032;52.436;13.312;2023-06-24T09:21:26;20.50;99.90
33699;DHT22;20032;52.436;13.312;2023-06-24T09:23:53;20.80;99.90
33699;DHT22;20032;52.436;13.312;2023-06-24T09:26:19;21.00;99.90
33699;DHT22;20032;52.436;13.312;2023-06-24T09:28:48;21.30;99.90
33699;DHT22;20032;52.436;13.312;2023-06-24T09:31:14;21.40;99.90
33699;DHT22;20032;52.436;13.312;2023-06-24T09:33:41;21.30;99.90
33699;DHT22;20032;52.436;13.312;2023-06-24T09:36:06;21.30;99.90
33699;DHT22;20032;52.436;13.312;2023-06-24T09:38:38;21.40;99.90
33699;DHT22;20032;52.436;13.312;2023-06-24T09:41:06;21.50;99.90
33699;DHT22;20032;52.436;13.312;2023-06-24T09:43:34;21.50;99.90
33699;DHT22;20032;52.436;13.312;2023-06-24T09:46:01;21.60;99.90
33699;DHT22;20032;52.436;13.312;2023-06-24T09:48:27;21.60;99.90
33699;DHT22;20032;52.436;13.312;2023-06-24T09:50:56;21.80;99.90
33699;DHT22;20032;52.436;13.312;2023-06-24T09:53:24;21.70;99.90
33699;DHT22;20032;52.436;13.312;2023-06-24T09:55:51;21.60;99.90
33699;DHT22;20032;52.436;13.312;2023-06-24T09:58:18;22.00;99.90
33699;DHT22;20032;52.436;13.312;2023-06-24T10:00:44;22.20;99.90
33699;DHT22;20032;52.436;13.312;2023-06-24T10:03:10;22.30;99.90
33699;DHT22;20032;52.436;13.312;2023-06-24T10:05:37;22.40;99.90
33699;DHT22;20032;52.436;13.312;2023-06-24T10:08:05;22.80;99.90
33699;DHT22;20032;52.436;13.312;2023-06-24T10:10:31;22.90;99.90
33699;DHT22;20032;52.436;13.312;2023-06-24T10:12:57;22.90;99.90
33699;DHT22;20032;52.436;13.312;2023-06-24T10:15:23;22.90;99.90
33699;DHT22;20032;52.436;13.312;2023-06-24T10:17:50;22.80;99.90
33699;DHT22;20032;52.436;13.312;2023-06-24T10:20:24;23.00;99.90
33699;DHT22;20032;52.436;13.312;2023-06-24T10:22:51;23.20;99.90
33699;DHT22;20032;52.436;13.312;2023-06-24T10:25:16;23.30;99.90
33699;DHT22;20032;52.436;13.312;2023-06-24T10:27:44;23.50;99.90
33699;DHT22;20032;52.436;13.312;2023-06-24T10:30:17;23.60;99.90
33699;DHT22;20032;52.436;13.312;2023-06-24T10:32:44;23.60;99.90
33699;DHT22;20032;52.436;13.312;2023-06-24T10:35:26;23.50;99.90
33699;DHT22;20032;52.436;13.312;2023-06-24T10:37:57;23.50;99.90
33699;DHT22;20032;52.436;13.312;2023-06-24T10:45:50;23.80;99.90
33699;DHT22;20032;52.436;13.312;2023-06-24T10:48:16;23.80;99.90
33699;DHT22;20032;52.436;13.312;2023-06-24T10:50:45;24.00;99.90
33699;DHT22;20032;52.436;13.312;2023-06-24T10:53:14;24.10;99.90
33699;DHT22;20032;52.436;13.312;2023-06-24T10:55:46;24.00;99.90
33699;DHT22;20032;52.436;13.312;2023-06-24T10:58:13;24.30;99.90
33699;DHT22;20032;52.436;13.312;2023-06-24T11:00:41;24.50;99.90
33699;DHT22;20032;52.436;13.312;2023-06-24T11:03:09;24.90;99.90
33699;DHT22;20032;52.436;13.312;2023-06-24T11:05:40;25.00;99.90
33699;DHT22;20032;52.436;13.312;2023-06-24T11:08:06;25.30;99.90
33699;DHT22;20032;52.436;13.312;2023-06-24T11:10:32;25.40;99.90
33699;DHT22;20032;52.436;13.312;2023-06-24T11:12:57;25.50;99.90
33699;DHT22;20032;52.436;13.312;2023-06-24T11:15:29;25.40;99.90
33699;DHT22;20032;52.436;13.312;2023-06-24T11:17:56;25.40;99.90
33699;DHT22;20032;52.436;13.312;2023-06-24T11:20:22;25.90;99.90
33699;DHT22;20032;52.436;13.312;2023-06-24T11:22:47;25.80;97.20
33699;DHT22;20032;52.436;13.312;2023-06-24T11:25:16;25.70;97.40
33699;DHT22;20032;52.436;13.312;2023-06-24T11:27:42;26.00;98.90
33699;DHT22;20032;52.436;13.312;2023-06-24T11:30:11;26.30;98.20
33699;DHT22;20032;52.436;13.312;2023-06-24T11:32:38;26.40;99.90
33699;DHT22;20032;52.436;13.312;2023-06-24T11:35:06;26.70;99.10
33699;DHT22;20032;52.436;13.312;2023-06-24T11:37:32;26.80;97.90
33699;DHT22;20032;52.436;13.312;2023-06-24T11:40:02;27.00;96.50
33699;DHT22;20032;52.436;13.312;2023-06-24T11:42:30;26.90;94.20
33699;DHT22;20032;52.436;13.312;2023-06-24T11:45:00;27.00;94.80
33699;DHT22;20032;52.436;13.312;2023-06-24T11:47:26;27.30;95.70
33699;DHT22;20032;52.436;13.312;2023-06-24T11:49:55;27.50;95.50
33699;DHT22;20032;52.436;13.312;2023-06-24T11:52:46;27.50;95.10
33699;DHT22;20032;52.436;13.312;2023-06-24T11:55:22;27.70;94.40
33699;DHT22;20032;52.436;13.312;2023-06-24T11:58:04;27.80;94.60
33699;DHT22;20032;52.436;13.312;2023-06-24T12:00:31;27.90;93.90
33699;DHT22;20032;52.436;13.312;2023-06-24T12:03:00;28.00;93.90
33699;DHT22;20032;52.436;13.312;2023-06-24T12:05:29;28.40;94.30
33699;DHT22;20032;52.436;13.312;2023-06-24T12:08:00;28.60;92.30
33699;DHT22;20032;52.436;13.312;2023-06-24T12:10:26;28.80;91.20
33699;DHT22;20032;52.436;13.312;2023-06-24T12:12:52;28.80;93.10
33699;DHT22;20032;52.436;13.312;2023-06-24T12:15:18;28.90;90.80
33699;DHT22;20032;52.436;13.312;2023-06-24T12:17:44;29.00;92.00
33699;DHT22;20032;52.436;13.312;2023-06-24T12:20:16;29.30;90.00
33699;DHT22;20032;52.436;13.312;2023-06-24T12:22:43;29.10;90.60
33699;DHT22;20032;52.436;13.312;2023-06-24T12:25:12;29.00;91.30
33699;DHT22;20032;52.436;13.312;2023-06-24T12:27:38;29.20;91.00
33699;DHT22;20032;52.436;13.312;2023-06-24T12:30:04;29.60;89.80
33699;DHT22;20032;52.436;13.312;2023-06-24T12:32:32;29.60;86.30
33699;DHT22;20032;52.436;13.312;2023-06-24T12:34:58;29.50;89.00
33699;DHT22;20032;52.436;13.312;2023-06-24T12:37:23;29.60;86.70
33699;DHT22;20032;52.436;13.312;2023-06-24T12:39:49;30.00;84.60
33699;DHT22;20032;52.436;13.312;2023-06-24T12:42:16;30.50;84.00
33699;DHT22;20032;52.436;13.312;2023-06-24T12:44:42;30.20;85.70
33699;DHT22;20032;52.436;13.312;2023-06-24T12:47:07;30.10;86.80
33699;DHT22;20032;52.436;13.312;2023-06-24T12:49:33;30.20;83.60
33699;DHT22;20032;52.436;13.312;2023-06-24T12:51:58;30.20;86.10
33699;DHT22;20032;52.436;13.312;2023-06-24T12:54:24;30.10;85.50
33699;DHT22;20032;52.436;13.312;2023-06-24T12:56:51;29.80;86.80
33699;DHT22;20032;52.436;13.312;2023-06-24T12:59:16;30.30;87.40
33699;DHT22;20032;52.436;13.312;2023-06-24T13:01:42;30.50;87.10
33699;DHT22;20032;52.436;13.312;2023-06-24T13:04:11;30.90;84.10
33699;DHT22;20032;52.436;13.312;2023-06-24T13:06:48;31.00;84.30
33699;DHT22;20032;52.436;13.312;2023-06-24T13:09:14;31.10;85.60
33699;DHT22;20032;52.436;13.312;2023-06-24T13:11:40;31.70;84.80
33699;DHT22;20032;52.436;13.312;2023-06-24T13:14:06;32.10;80.40
33699;DHT22;20032;52.436;13.312;2023-06-24T13:16:32;32.10;80.20
33699;DHT22;20032;52.436;13.312;2023-06-24T13:18:58;31.40;81.00
33699;DHT22;20032;52.436;13.312;2023-06-24T13:21:24;31.50;84.30
33699;DHT22;20032;52.436;13.312;2023-06-24T13:23:49;31.10;83.10
33699;DHT22;20032;52.436;13.312;2023-06-24T13:26:15;30.90;86.90
33699;DHT22;20032;52.436;13.312;2023-06-24T13:28:41;31.50;82.90
33699;DHT22;20032;52.436;13.312;2023-06-24T13:31:07;31.70;81.30
33699;DHT22;20032;52.436;13.312;2023-06-24T13:33:32;31.70;83.70
33699;DHT22;20032;52.436;13.312;2023-06-24T13:35:58;32.30;79.80
33699;DHT22;20032;52.436;13.312;2023-06-24T13:38:23;32.20;81.30
33699;DHT22;20032;52.436;13.312;2023-06-24T13:40:49;31.70;82.50
33699;DHT22;20032;52.436;13.312;2023-06-24T13:43:14;31.90;80.50
33699;DHT22;20032;52.436;13.312;2023-06-24T13:45:40;32.10;80.80
33699;DHT22;20032;52.436;13.312;2023-06-24T13:48:06;31.60;78.90
33699;DHT22;20032;52.436;13.312;2023-06-24T13:50:31;31.80;80.60
33699;DHT22;20032;52.436;13.312;2023-06-24T13:52:57;32.50;78.30
33699;DHT22;20032;52.436;13.312;2023-06-24T13:55:23;33.10;78.70
33699;DHT22;20032;52.436;13.312;2023-06-24T13:57:49;32.90;77.50
33699;DHT22;20032;52.436;13.312;2023-06-24T14:00:17;33.30;78.40
33699;DHT22;20032;52.436;13.312;2023-06-24T14:02:45;33.20;75.90
33699;DHT22;20032;52.436;13.312;2023-06-24T14:05:11;33.50;75.60
33699;DHT22;20032;52.436;13.312;2023-06-24T14:07:36;33.50;77.80
33699;DHT22;20032;52.436;13.312;2023-06-24T14:10:03;33.50;75.30
33699;DHT22;20032;52.436;13.312;2023-06-24T14:12:29;34.10;76.90
33699;DHT22;20032;52.436;13.312;2023-06-24T14:14:55;33.90;75.50
33699;DHT22;20032;52.436;13.312;2023-06-24T14:17:22;33.30;77.50
33699;DHT22;20032;52.436;13.312;2023-06-24T14:19:48;33.20;78.00
33699;DHT22;20032;52.436;13.312;2023-06-24T14:22:15;33.20;75.50
33699;DHT22;20032;52.436;13.312;2023-06-24T14:24:48;33.30;74.20
33699;DHT22;20032;52.436;13.312;2023-06-24T14:27:14;33.60;72.70
33699;DHT22;20032;52.436;13.312;2023-06-24T14:29:40;33.60;73.20
33699;DHT22;20032;52.436;13.312;2023-06-24T14:32:06;33.60;74.80
33699;DHT22;20032;52.436;13.312;2023-06-24T14:34:33;34.00;71.80
33699;DHT22;20032;52.436;13.312;2023-06-24T14:36:59;33.80;72.70
33699;DHT22;20032;52.436;13.312;2023-06-24T14:39:24;33.40;73.40
33699;DHT22;20032;52.436;13.312;2023-06-24T14:41:50;33.90;71.70
33699;DHT22;20032;52.436;13.312;2023-06-24T14:44:15;33.20;71.50
33699;DHT22;20032;52.436;13.312;2023-06-24T14:46:42;33.20;72.60
33699;DHT22;20032;52.436;13.312;2023-06-24T14:49:07;33.60;73.40
33699;DHT22;20032;52.436;13.312;2023-06-24T14:51:35;33.60;72.50
33699;DHT22;20032;52.436;13.312;2023-06-24T14:54:01;34.20;71.30
33699;DHT22;20032;52.436;13.312;2023-06-24T14:56:28;34.60;69.10
33699;DHT22;20032;52.436;13.312;2023-06-24T14:58:53;34.40;69.30
33699;DHT22;20032;52.436;13.312;2023-06-24T15:01:19;34.10;69.60
33699;DHT22;20032;52.436;13.312;2023-06-24T15:03:45;33.80;71.80
33699;DHT22;20032;52.436;13.312;2023-06-24T15:06:11;33.70;70.60
33699;DHT22;20032;52.436;13.312;2023-06-24T15:08:38;34.00;72.40
33699;DHT22;20032;52.436;13.312;2023-06-24T15:11:03;34.40;69.50
33699;DHT22;20032;52.436;13.312;2023-06-24T15:13:29;32.80;70.40
33699;DHT22;20032;52.436;13.312;2023-06-24T15:15:55;31.50;72.90
33699;DHT22;20032;52.436;13.312;2023-06-24T15:18:28;31.50;75.40